Round Lake, Illinois
Current Conditions -  °F | °C
As of 9:55 AM on Saturday 22 Nov 2014 (Local Time) from KUGN Reporting Station
Haze Haze  
Wind Chill: 32°   Ceiling: 400
Heat Index: 39°   Visibility: 1.7mi
Dew Point: 37°   Wind: 12mph
Humidity: 93%   Direction: 200°SSW
Pressure: 29.96"   Gusts: NA
Location:  42.35°N, 88.09°W
Report Text: KUGN 221555Z 20010KT 1 3/4SM BR OVC004 04/03 A2996 RMK AO2 SLP156 T00390028
Loading
Personal Weather Stations






























Interactive Weather Map New forecast layout! Learn more

10-Day Weather Forecast

Advertisements
Track Severe Weather on mobile